Time;durP1;ratioP1;P1;durP2;ratioP2;P2;SDS_P1;SDS_P2;PMS_P1;PMS_P2;Temp;Humidity;BMP_temperature;BMP_pressure;BME280_temperature;BME280_humidity;BME280_pressure;Samples;Min_cycle;Max_cycle;Signal;HPM_P1;HPM_P2
2021/04/17 00:04:09;;;;;;;16.95;9.75;;;;;;;11.77;75.35;99275.09;4167523;84;28580;-84
2021/04/17 00:10:13;;;;;;;14.98;8.58;;;;;;;11.66;76.03;99266.77;4229911;83;28649;-85
2021/04/17 00:16:17;;;;;;;19.00;10.05;;;;;;;12.02;73.30;99268.16;4192130;84;28604;-84
2021/04/17 00:22:21;;;;;;;20.30;11.30;;;;;;;11.89;74.29;99267.02;4178406;84;28626;-84
2021/04/17 00:28:23;;;;;;;18.00;10.65;;;;;;;11.90;74.49;99261.92;4155216;84;28571;-84
2021/04/17 00:34:25;;;;;;;17.87;9.70;;;;;;;11.56;76.90;99258.44;4240945;82;28691;-84
2021/04/17 00:40:27;;;;;;;17.70;10.15;;;;;;;11.66;75.20;99260.03;4182304;84;28627;-83
2021/04/17 00:46:31;;;;;;;15.53;8.73;;;;;;;11.69;75.75;99252.82;4288345;82;28651;-84
2021/04/17 00:52:33;;;;;;;19.32;10.70;;;;;;;11.97;72.85;99248.62;4325077;82;28636;-83
2021/04/17 00:58:38;;;;;;;15.55;9.28;;;;;;;11.49;76.12;99250.98;4270524;82;28965;-82
2021/04/17 01:04:43;;;;;;;17.10;9.93;;;;;;;11.67;75.19;99261.67;4304529;82;28598;-82
2021/04/17 01:10:51;;;;;;;19.45;10.90;;;;;;;11.54;76.68;99261.89;4296385;82;28537;-82
2021/04/17 01:16:56;;;;;;;17.40;10.58;;;;;;;11.10;81.44;99272.38;4299204;82;28578;-82
2021/04/17 01:23:39;;;;;;;21.00;11.22;;;;;;;11.90;73.98;99267.31;4323356;82;28623;-82
2021/04/17 01:29:44;;;;;;;18.25;10.05;;;;;;;11.99;74.21;99270.75;4287441;82;28723;-83
2021/04/17 01:35:49;;;;;;;17.23;9.65;;;;;;;11.79;75.07;99258.16;4308117;82;28594;-83
2021/04/17 01:41:59;;;;;;;17.05;9.45;;;;;;;11.84;74.30;99267.72;4323604;82;28600;-84
2021/04/17 01:48:03;;;;;;;19.23;9.88;;;;;;;11.19;78.18;99268.83;4315043;81;28588;-84
2021/04/17 01:54:11;;;;;;;14.33;8.80;;;;;;;11.20;79.53;99273.70;4322418;81;28639;-83
2021/04/17 02:00:14;;;;;;;15.08;8.85;;;;;;;11.08;78.79;99265.58;4231097;83;28565;-83
2021/04/17 02:06:16;;;;;;;13.28;8.00;;;;;;;11.38;75.30;99264.19;4158916;84;28696;-84
2021/04/17 02:12:19;;;;;;;12.85;7.45;;;;;;;10.95;77.37;99268.76;4222506;83;28946;-84
2021/04/17 02:18:50;;;;;;;12.30;7.80;;;;;;;11.50;74.07;99263.39;4235071;83;28585;-84
2021/04/17 02:24:53;;;;;;;13.32;7.67;;;;;;;11.19;76.13;99269.34;4169516;83;28586;-83
2021/04/17 02:30:59;;;;;;;10.90;6.92;;;;;;;11.37;74.48;99261.75;4230946;83;28649;-82
2021/04/17 02:37:01;;;;;;;13.08;7.08;;;;;;;11.67;72.43;99263.02;4257094;83;28577;-83
2021/04/17 02:43:04;;;;;;;13.30;8.13;;;;;;;10.87;79.69;99258.31;4258374;83;28568;-83
2021/04/17 02:49:06;;;;;;;12.15;7.35;;;;;;;11.48;75.12;99266.84;4212609;83;28617;-83
2021/04/17 02:55:09;;;;;;;13.00;7.70;;;;;;;11.37;76.37;99262.55;4263018;83;28575;-83
2021/04/17 03:01:12;;;;;;;12.70;8.00;;;;;;;11.47;76.06;99258.48;4211746;82;28575;-83
2021/04/17 03:07:14;;;;;;;12.55;7.70;;;;;;;11.65;73.91;99264.29;4177279;83;28685;-82
2021/04/17 03:13:16;;;;;;;15.85;8.78;;;;;;;11.65;74.69;99262.95;4186214;84;28605;-82
2021/04/17 03:19:19;;;;;;;14.47;8.98;;;;;;;11.83;72.57;99264.73;4204191;84;28619;-82
2021/04/17 03:25:22;;;;;;;16.55;8.03;;;;;;;11.74;73.81;99267.48;4189812;84;28648;-83
2021/04/17 03:31:24;;;;;;;12.00;7.45;;;;;;;11.80;72.72;99268.71;4173375;84;29060;-82
2021/04/17 03:37:27;;;;;;;12.58;7.78;;;;;;;11.36;75.31;99270.88;4160287;84;28587;-82
2021/04/17 03:43:29;;;;;;;12.35;7.58;;;;;;;11.46;75.64;99271.14;4184921;84;28624;-83
2021/04/17 03:49:32;;;;;;;14.35;8.00;;;;;;;11.83;72.86;99274.97;4175374;84;28603;-83
2021/04/17 03:55:34;;;;;;;12.40;7.30;;;;;;;11.58;74.43;99271.14;4196057;83;28577;-84
2021/04/17 04:01:36;;;;;;;12.75;7.70;;;;;;;11.99;71.73;99270.75;4285864;82;28605;-83
2021/04/17 04:07:40;;;;;;;13.88;8.50;;;;;;;11.28;76.53;99280.08;4306398;82;28663;-83
2021/04/17 04:13:42;;;;;;;15.25;8.30;;;;;;;11.54;74.48;99282.09;4295706;82;28583;-83
2021/04/17 04:19:44;;;;;;;15.20;8.60;;;;;;;11.73;73.14;99286.05;4310941;82;28664;-83
2021/04/17 04:25:46;;;;;;;13.75;8.40;;;;;;;11.86;73.04;99287.16;4300622;82;28610;-84
2021/04/17 04:31:48;;;;;;;13.48;8.10;;;;;;;12.04;71.27;99292.98;4295497;82;28583;-84
2021/04/17 04:37:51;;;;;;;11.35;7.40;;;;;;;11.60;73.99;99298.65;4291027;82;28644;-83
2021/04/17 04:43:53;;;;;;;13.18;7.80;;;;;;;11.90;72.79;99307.72;4313981;82;28620;-83
2021/04/17 04:49:55;;;;;;;15.32;8.50;;;;;;;11.79;72.44;99301.26;4310861;81;28603;-85
2021/04/17 04:55:57;;;;;;;14.38;8.60;;;;;;;12.09;69.81;99304.41;4300360;82;28580;-84
2021/04/17 05:02:02;;;;;;;15.90;9.58;;;;;;;12.02;71.43;99293.75;4304058;82;28675;-82
2021/04/17 05:08:05;;;;;;;14.98;9.03;;;;;;;12.10;71.14;99295.27;4330666;82;28631;-83
2021/04/17 05:14:07;;;;;;;15.60;9.85;;;;;;;11.56;74.77;99296.97;4314828;82;29220;-81
2021/04/17 05:20:10;;;;;;;16.10;10.23;;;;;;;11.96;71.50;99298.69;4326602;82;28648;-83
2021/04/17 05:26:13;;;;;;;17.05;10.13;;;;;;;11.70;74.25;99300.79;4292746;82;28673;-83
2021/04/17 05:32:16;;;;;;;19.02;11.08;;;;;;;12.49;68.76;99300.98;4285112;82;28613;-82
2021/04/17 05:38:19;;;;;;;20.15;11.10;;;;;;;12.32;69.62;99298.70;4299061;82;28703;-84
2021/04/17 05:44:21;;;;;;;16.87;10.72;;;;;;;12.42;69.42;99304.33;4293133;82;28673;-83
2021/04/17 05:50:24;;;;;;;16.90;9.68;;;;;;;11.82;73.50;99300.81;4338575;81;28655;-83
2021/04/17 05:56:29;;;;;;;17.98;10.95;;;;;;;12.04;71.18;99307.00;4306208;82;28623;-83
2021/04/17 06:02:30;;;;;;;17.57;10.13;;;;;;;12.68;67.39;99307.03;4306618;82;28619;-83
2021/04/17 06:08:33;;;;;;;16.62;9.60;;;;;;;12.49;68.59;99306.89;4285784;82;28571;-83
2021/04/17 06:14:36;;;;;;;18.50;9.90;;;;;;;12.36;68.98;99301.25;4307478;82;28568;-83
2021/04/17 06:20:39;;;;;;;16.17;9.40;;;;;;;12.71;67.87;99303.59;4289269;82;29053;-83
2021/04/17 06:26:42;;;;;;;14.55;8.38;;;;;;;12.33;69.35;99296.30;4288117;82;28567;-83
2021/04/17 06:32:44;;;;;;;13.55;8.38;;;;;;;12.28;70.31;99290.27;4286212;82;28614;-82
2021/04/17 06:38:47;;;;;;;14.70;8.78;;;;;;;12.77;67.25;99299.40;4289197;82;28600;-82
2021/04/17 06:44:52;;;;;;;14.10;8.03;;;;;;;12.68;68.68;99300.83;4288313;82;28595;-84
2021/04/17 06:50:55;;;;;;;11.80;7.58;;;;;;;13.42;64.38;99295.72;4308158;81;28792;-83
2021/04/17 06:56:57;;;;;;;11.18;7.22;;;;;;;13.06;65.71;99297.24;4325409;81;28606;-84
2021/04/17 07:03:00;;;;;;;11.40;7.45;;;;;;;13.35;65.07;99293.17;4323466;81;28596;-83
2021/04/17 07:09:06;;;;;;;13.43;8.40;;;;;;;13.58;63.88;99295.48;4311761;81;28652;-83
2021/04/17 07:15:09;;;;;;;14.18;9.58;;;;;;;13.30;65.23;99303.36;4341185;80;28599;-83
2021/04/17 07:21:19;;;;;;;13.32;8.53;;;;;;;12.74;66.99;99301.75;4327477;81;28615;-84
2021/04/17 07:27:35;;;;;;;14.50;9.33;;;;;;;12.91;66.76;99303.16;4332651;81;28612;-83
2021/04/17 07:33:38;;;;;;;14.23;8.88;;;;;;;13.55;63.05;99308.13;4325672;80;28631;-84
2021/04/17 07:39:42;;;;;;;15.30;8.85;;;;;;;13.21;63.80;99308.31;4317925;81;28630;-83
2021/04/17 07:45:44;;;;;;;15.55;9.73;;;;;;;13.32;64.23;99312.03;4313084;81;28627;-86
2021/04/17 07:52:00;;;;;;;16.15;9.90;;;;;;;13.69;62.73;99312.66;4304842;81;28597;-85
2021/04/17 07:58:04;;;;;;;14.28;9.03;;;;;;;13.70;62.45;99312.98;4321290;80;28631;-83
2021/04/17 08:04:08;;;;;;;19.40;12.05;;;;;;;13.22;62.42;99322.64;4347059;81;28603;-85
2021/04/17 08:10:12;;;;;;;16.40;10.53;;;;;;;13.39;64.11;99330.26;4339698;81;28583;-84
2021/04/17 08:16:16;;;;;;;17.65;9.70;;;;;;;13.74;60.91;99334.38;4331380;81;28572;-86
2021/04/17 08:22:20;;;;;;;17.40;10.53;;;;;;;12.66;65.76;99333.97;4290408;80;28579;-87
2021/04/17 08:28:23;;;;;;;18.62;11.00;;;;;;;13.04;64.65;99335.26;4342329;81;28663;-84
2021/04/17 08:34:26;;;;;;;22.77;13.10;;;;;;;13.68;63.75;99335.34;4346691;80;28644;-85
2021/04/17 08:40:43;;;;;;;17.82;10.40;;;;;;;13.76;61.41;99336.30;4336254;80;28682;-85
2021/04/17 08:46:45;;;;;;;20.95;11.50;;;;;;;13.89;60.82;99331.11;4198248;84;28577;-90
2021/04/17 08:52:55;;;;;;;21.77;13.10;;;;;;;13.48;62.05;99340.67;4177028;83;28612;-89
2021/04/17 08:59:10;;;;;;;20.95;12.65;;;;;;;13.38;62.96;99334.55;4191406;84;28606;-89
2021/04/17 09:05:17;;;;;;;18.50;11.25;;;;;;;13.75;62.17;99342.25;4178672;84;28614;-87
2021/04/17 09:11:36;;;;;;;23.80;13.08;;;;;;;13.65;62.18;99345.58;4180972;83;28609;-90
2021/04/17 09:17:44;;;;;;;20.75;12.68;;;;;;;13.49;64.86;99336.39;4191904;84;28621;-88
2021/04/17 09:23:53;;;;;;;21.80;12.55;;;;;;;13.97;63.42;99333.41;4199494;84;28581;-88
2021/04/17 09:30:11;;;;;;;23.67;13.80;;;;;;;13.85;62.98;99336.70;4188382;83;28629;-88
2021/04/17 09:36:21;;;;;;;21.07;12.78;;;;;;;13.24;65.43;99340.77;4174466;84;28605;-87
2021/04/17 09:48:44;;;;;;;24.07;13.53;;;;;;;13.87;63.28;99341.35;4597544;76;85049;-86
2021/04/17 09:55:03;;;;;;;22.22;13.25;;;;;;;13.77;63.16;99339.28;4496107;78;28577;-86
2021/04/17 10:01:18;;;;;;;22.93;14.18;;;;;;;14.32;61.37;99339.05;4502178;78;28604;-90
2021/04/17 10:07:20;;;;;;;21.25;12.55;;;;;;;14.53;60.71;99335.28;4488329;78;28597;-86
2021/04/17 10:13:45;;;;;;;23.02;13.62;;;;;;;14.19;61.21;99336.16;4510927;78;28586;-84
2021/04/17 10:19:48;;;;;;;25.67;13.97;;;;;;;13.89;62.40;99337.86;4504249;78;28571;-85
2021/04/17 10:25:50;;;;;;;22.05;13.78;;;;;;;14.36;60.73;99339.38;4487625;78;28564;-86
2021/04/17 10:32:22;;;;;;;24.95;13.80;;;;;;;14.64;59.25;99337.60;4471593;78;28653;-85
2021/04/17 10:38:29;;;;;;;23.32;14.13;;;;;;;14.50;59.74;99334.44;4493660;78;28598;-86
2021/04/17 10:44:32;;;;;;;24.72;14.05;;;;;;;14.24;61.18;99323.80;4496158;78;28604;-85
2021/04/17 10:50:41;;;;;;;24.98;14.73;;;;;;;14.68;60.37;99321.66;4476521;78;28584;-86
2021/04/17 10:57:06;;;;;;;24.12;13.58;;;;;;;14.38;60.10;99318.86;4509640;78;28561;-81
2021/04/17 11:03:09;;;;;;;25.23;13.63;;;;;;;14.41;59.49;99324.56;4464165;78;28591;-82
2021/04/17 11:09:17;;;;;;;28.00;15.20;;;;;;;13.96;60.14;99320.13;4508684;78;28610;-86
2021/04/17 11:15:23;;;;;;;25.35;13.80;;;;;;;14.82;57.31;99320.26;4499139;78;28606;-85
2021/04/17 11:21:25;;;;;;;24.55;14.50;;;;;;;14.56;58.01;99320.44;4501148;78;28580;-85
2021/04/17 11:27:32;;;;;;;25.40;14.90;;;;;;;14.49;59.88;99321.98;4495590;78;28644;-84
2021/04/17 11:33:34;;;;;;;21.77;13.13;;;;;;;14.54;59.56;99331.50;4497109;78;28673;-84
2021/04/17 11:39:40;;;;;;;26.42;15.05;;;;;;;14.21;59.50;99337.27;4525932;78;28604;-86
2021/04/17 11:45:44;;;;;;;16.95;10.50;;;;;;;15.17;56.30;99331.20;4491850;78;28556;-89
2021/04/17 11:51:48;;;;;;;16.65;10.60;;;;;;;15.12;54.56;99327.09;4497137;78;28660;-86
2021/04/17 11:57:51;;;;;;;16.93;10.90;;;;;;;15.36;53.00;99331.37;4490635;78;29551;-84
2021/04/17 12:03:53;;;;;;;18.40;11.93;;;;;;;14.66;56.83;99329.21;4497805;78;28590;-86
2021/04/17 12:09:56;;;;;;;19.87;12.13;;;;;;;15.23;55.50;99333.42;4507908;78;28634;-85
2021/04/17 12:15:58;;;;;;;18.73;11.78;;;;;;;15.11;55.94;99336.30;4495163;78;28592;-84
2021/04/17 12:22:00;;;;;;;15.15;9.53;;;;;;;14.82;56.61;99334.31;4493018;78;28620;-86
2021/04/17 12:28:03;;;;;;;20.62;12.07;;;;;;;14.48;55.66;99334.67;4509743;78;28573;-84
2021/04/17 12:34:05;;;;;;;18.25;11.43;;;;;;;14.90;56.29;99334.70;4476897;78;28586;-88
2021/04/17 12:40:09;;;;;;;16.30;10.28;;;;;;;14.75;56.85;99339.92;4486362;78;28590;-86
2021/04/17 12:46:11;;;;;;;20.30;12.28;;;;;;;13.85;61.04;99344.80;4504168;78;28588;-86
2021/04/17 12:52:13;;;;;;;18.57;11.12;;;;;;;14.26;59.45;99339.23;4492478;78;28578;-89
2021/04/17 12:58:15;;;;;;;19.67;11.55;;;;;;;14.77;58.24;99339.96;4498150;78;28628;-85
2021/04/17 13:04:17;;;;;;;18.90;11.48;;;;;;;13.92;61.87;99344.13;4501550;78;28683;-86
2021/04/17 13:10:20;;;;;;;17.92;11.03;;;;;;;14.11;60.56;99341.17;4513809;78;28610;-87
2021/04/17 13:16:22;;;;;;;18.95;11.43;;;;;;;14.03;61.29;99337.81;4493991;78;28616;-87
2021/04/17 13:22:25;;;;;;;17.77;10.65;;;;;;;14.19;61.72;99331.30;4494896;78;28562;-88
2021/04/17 13:28:27;;;;;;;20.43;11.80;;;;;;;14.52;60.84;99327.41;4506327;78;28566;-87
2021/04/17 13:34:30;;;;;;;18.42;12.37;;;;;;;14.87;58.85;99326.27;4510719;77;28637;-86
2021/04/17 13:40:33;;;;;;;21.52;12.23;;;;;;;14.36;62.02;99334.77;4493158;78;28617;-86
2021/04/17 13:46:35;;;;;;;18.00;10.65;;;;;;;14.44;61.32;99340.83;4501427;78;28681;-85
2021/04/17 13:52:38;;;;;;;18.12;11.40;;;;;;;14.48;60.27;99346.05;4502181;78;28544;-86
2021/04/17 13:58:40;;;;;;;18.35;10.75;;;;;;;13.77;62.68;99342.81;4480631;78;28683;-87
2021/04/17 14:04:42;;;;;;;19.70;11.35;;;;;;;14.38;60.22;99341.30;4487525;78;28563;-86
2021/04/17 14:10:46;;;;;;;22.15;12.73;;;;;;;14.25;61.71;99341.11;4487055;78;28619;-86
2021/04/17 14:16:49;;;;;;;21.15;12.43;;;;;;;14.58;60.22;99335.36;4495554;78;28571;-86
2021/04/17 14:22:54;;;;;;;17.60;11.25;;;;;;;14.49;59.42;99342.27;4497483;77;28697;-84
2021/04/17 14:28:56;;;;;;;22.95;13.30;;;;;;;14.53;60.38;99339.34;4510935;78;28656;-87
2021/04/17 14:34:59;;;;;;;23.77;14.05;;;;;;;14.67;60.06;99342.50;4509538;78;28560;-86
2021/04/17 14:41:02;;;;;;;21.07;12.37;;;;;;;14.27;62.14;99346.28;4474776;79;28599;-89
2021/04/17 14:47:06;;;;;;;24.32;13.40;;;;;;;14.51;60.75;99348.25;4511990;78;28566;-89
2021/04/17 14:53:09;;;;;;;24.67;14.85;;;;;;;14.41;62.12;99354.31;4480246;79;28555;-88
2021/04/17 14:59:13;;;;;;;25.15;14.40;;;;;;;14.33;62.57;99356.92;4518868;77;28616;-88
2021/04/17 15:05:15;;;;;;;22.07;13.78;;;;;;;14.44;61.79;99356.55;4498895;79;28574;-90
2021/04/17 15:11:19;;;;;;;20.65;13.13;;;;;;;13.93;65.75;99361.45;4515976;78;28591;-86
2021/04/17 15:17:21;;;;;;;23.92;14.80;;;;;;;13.99;66.04;99358.30;4514438;79;28570;-88
2021/04/17 15:23:24;;;;;;;24.30;15.43;;;;;;;14.52;62.63;99359.34;4525975;77;28606;-90
2021/04/17 15:29:27;;;;;;;26.65;15.65;;;;;;;14.60;62.22;99354.03;4541638;78;28610;-92
2021/04/17 15:35:33;;;;;;;21.27;13.20;;;;;;;14.48;62.82;99346.05;4495731;78;28999;-85
2021/04/17 15:41:50;;;;;;;21.37;12.85;;;;;;;14.43;63.21;99350.02;4509904;78;28656;-93
2021/04/17 15:47:52;;;;;;;24.70;15.40;;;;;;;14.52;63.60;99347.69;4451939;77;28579;-95
2021/04/17 15:53:55;;;;;;;25.23;15.28;;;;;;;14.34;64.82;99346.93;4481814;79;28556;-92
2021/04/17 16:28:10;;;;;;;30.00;16.15;;;;;;;14.42;64.62;99326.22;4517004;78;28590;-92
2021/04/17 16:41:28;;;;;;;36.23;18.98;;;;;;;13.99;67.32;99329.09;4521391;79;28538;-95
2021/04/17 16:47:36;;;;;;;29.50;17.82;;;;;;;13.88;68.30;99327.57;4377310;76;28609;-95
2021/04/17 16:53:39;;;;;;;40.75;22.48;;;;;;;14.14;67.13;99329.33;4310740;80;28633;-96
2021/04/17 16:59:41;;;;;;;39.53;22.48;;;;;;;13.88;70.80;99336.23;4289029;80;28657;-93
2021/04/17 17:05:44;;;;;;;36.98;20.65;;;;;;;13.76;72.89;99343.89;4246746;83;28569;-86
2021/04/17 17:11:46;;;;;;;37.25;20.30;;;;;;;13.70;73.75;99342.15;4258166;80;28623;-86
2021/04/17 17:17:49;;;;;;;41.48;22.73;;;;;;;14.03;70.95;99342.41;4411689;79;28596;-88
2021/04/17 17:23:52;;;;;;;42.45;23.07;;;;;;;13.89;71.78;99352.18;4351795;79;28642;-88
2021/04/17 17:29:56;;;;;;;42.38;22.00;;;;;;;14.18;69.74;99345.89;4316380;80;28634;-91
2021/04/17 17:36:08;;;;;;;40.92;21.52;;;;;;;13.99;71.87;99348.01;4344837;79;28615;-90
2021/04/17 17:42:22;;;;;;;44.08;23.87;;;;;;;14.01;71.87;99350.76;4333331;80;28584;-87
2021/04/17 17:48:30;;;;;;;43.42;25.00;;;;;;;14.08;70.15;99348.72;4217276;83;28664;-87
2021/04/17 17:54:49;;;;;;;;;;;;;;;;;;;;;
2021/04/17 18:00:59;;;;;;;39.75;21.68;;;;;;;13.76;73.60;99353.34;4339028;81;28677;-85
2021/04/17 18:07:01;;;;;;;44.70;23.77;;;;;;;14.01;71.05;99352.66;4313299;81;28622;-90
2021/04/17 18:13:10;;;;;;;41.53;21.42;;;;;;;13.75;73.57;99366.56;4336833;81;28636;-85
2021/04/17 18:19:12;;;;;;;42.13;22.10;;;;;;;13.84;73.04;99371.55;4335622;81;28624;-88
2021/04/17 18:25:18;;;;;;;43.50;22.48;;;;;;;13.62;75.90;99364.16;4300031;81;28586;-92
2021/04/17 18:31:22;;;;;;;41.40;23.35;;;;;;;13.44;78.93;99375.96;4284046;82;28620;-89
2021/04/17 18:37:28;;;;;;;46.75;24.07;;;;;;;13.45;79.14;99383.87;4330746;80;28636;-88
2021/04/17 18:43:30;;;;;;;;;;;;;;;13.76;75.03;99383.59;4336546;80;28631;-89
2021/04/17 18:49:32;;;;;;;46.83;24.63;;;;;;;13.70;78.35;99384.58;4307601;80;20266;-88
2021/04/17 18:55:35;;;;;;;41.88;22.07;;;;;;;13.19;82.71;99396.83;4329685;80;28665;-86
2021/04/17 19:01:37;;;;;;;39.92;20.35;;;;;;;13.43;79.19;99398.09;4337925;80;28599;-86
2021/04/17 19:07:39;;;;;;;43.45;21.77;;;;;;;13.61;77.10;99400.34;4326507;80;28578;-85
2021/04/17 19:13:42;;;;;;;43.13;22.17;;;;;;;13.77;75.81;99393.33;4341142;81;28572;-85
2021/04/17 19:19:45;;;;;;;47.00;23.55;;;;;;;13.60;78.34;99391.44;4221947;83;28636;-83
2021/04/17 19:25:47;;;;;;;49.25;25.43;;;;;;;13.78;76.58;99393.61;4315569;81;28675;-88
2021/04/17 19:31:50;;;;;;;47.95;25.08;;;;;;;13.61;77.78;99387.66;4299135;81;29120;-84
2021/04/17 19:37:53;;;;;;;46.90;23.77;;;;;;;13.28;80.92;99390.54;4304558;81;28676;-84
2021/04/17 19:43:55;;;;;;;52.10;27.35;;;;;;;13.72;76.13;99393.25;4288667;81;28640;-87
2021/04/17 19:49:57;;;;;;;46.90;22.93;;;;;;;13.54;78.39;99381.59;4183729;84;28660;-84
2021/04/17 19:56:00;;;;;;;43.95;21.75;;;;;;;13.38;79.15;99394.79;4238727;83;28672;-86
2021/04/17 20:02:02;;;;;;;40.38;19.55;;;;;;;13.66;76.72;99390.44;4230701;83;28591;-84
2021/04/17 20:08:06;;;;;;;48.83;23.12;;;;;;;13.59;76.95;99387.61;4257696;83;28650;-84
2021/04/17 20:14:08;;;;;;;50.92;24.10;;;;;;;13.66;76.27;99385.04;4365425;81;28642;-84
2021/04/17 20:20:12;;;;;;;47.93;24.00;;;;;;;13.46;78.06;99382.80;4329476;80;28571;-83
2021/04/17 20:26:15;;;;;;;52.35;25.12;;;;;;;13.56;78.58;99381.35;4345421;80;28575;-82
2021/04/17 20:32:17;;;;;;;46.73;24.60;;;;;;;13.33;82.19;99389.27;4358221;81;28657;-82
2021/04/17 20:38:20;;;;;;;56.37;26.82;;;;;;;13.07;84.95;99397.40;4360365;80;28573;-82
2021/04/17 20:44:22;;;;;;;54.18;27.48;;;;;;;13.10;83.12;99396.39;4351350;80;28707;-82
2021/04/17 20:50:24;;;;;;;58.52;27.13;;;;;;;13.37;81.14;99386.37;4362135;80;28610;-82
2021/04/17 20:56:31;;;;;;;57.70;26.85;;;;;;;13.49;80.58;99390.96;4343939;80;28639;-82
2021/04/17 21:02:31;;;;;;;51.85;26.10;;;;;;;13.52;79.06;99382.36;4350094;80;28560;-83
2021/04/17 21:08:34;;;;;;;63.60;29.85;;;;;;;13.55;78.21;99380.52;4342188;80;28582;-83
2021/04/17 21:14:36;;;;;;;64.07;29.52;;;;;;;13.56;78.78;99378.10;4354877;81;28611;-83
2021/04/17 21:20:39;;;;;;;57.85;28.02;;;;;;;13.51;79.16;99376.67;4363731;80;28593;-82
2021/04/17 21:26:42;;;;;;;50.45;24.80;;;;;;;13.39;80.31;99376.17;4356937;81;28805;-82
2021/04/17 21:32:47;;;;;;;48.02;23.22;;;;;;;13.41;79.08;99375.91;4263880;83;28713;-83
2021/04/17 21:38:51;;;;;;;49.20;24.45;;;;;;;13.50;77.98;99377.19;4223340;83;28579;-83
2021/04/17 21:44:54;;;;;;;52.62;24.70;;;;;;;13.60;77.24;99379.28;4251349;82;28608;-83
2021/04/17 21:50:57;;;;;;;51.13;25.05;;;;;;;13.30;78.62;99387.06;4236963;83;28630;-85
2021/04/17 21:56:59;;;;;;;48.87;24.57;;;;;;;12.63;87.60;99395.12;4290810;83;28613;-84
2021/04/17 22:03:02;;;;;;;52.58;25.48;;;;;;;13.04;82.74;99387.09;4263275;83;28630;-83
2021/04/17 22:09:05;;;;;;;52.88;25.12;;;;;;;13.34;79.67;99388.21;4244106;83;28588;-83
2021/04/17 22:15:08;;;;;;;58.55;27.25;;;;;;;13.50;78.27;99377.19;4237986;83;29000;-82
2021/04/17 22:21:10;;;;;;;62.33;28.87;;;;;;;13.36;78.77;99379.33;4245318;83;28671;-83
2021/04/17 22:27:12;;;;;;;60.28;28.77;;;;;;;12.86;83.55;99378.08;4245314;83;28599;-83
2021/04/17 22:33:16;;;;;;;54.30;26.65;;;;;;;13.37;78.31;99376.11;4244059;82;28706;-82
2021/04/17 22:39:19;;;;;;;58.35;26.17;;;;;;;13.27;78.72;99386.17;4244523;83;28632;-83
2021/04/17 22:45:22;;;;;;;57.20;27.67;;;;;;;13.37;78.34;99375.56;4288111;81;28596;-83
2021/04/17 22:51:25;;;;;;;63.42;29.57;;;;;;;13.27;79.00;99375.92;4311268;81;28616;-83
2021/04/17 22:57:27;;;;;;;60.15;28.35;;;;;;;13.43;77.69;99377.83;4354402;81;28575;-80
2021/04/17 23:03:28;;;;;;;56.02;26.48;;;;;;;13.48;77.92;99371.73;4372845;81;28614;-83
2021/04/17 23:09:31;;;;;;;53.35;25.57;;;;;;;13.23;81.01;99372.36;4372715;81;28654;-84
2021/04/17 23:15:33;;;;;;;53.55;25.90;;;;;;;13.61;77.45;99367.92;4330874;81;28590;-81
2021/04/17 23:21:38;;;;;;;57.60;27.95;;;;;;;13.10;83.45;99361.82;4240631;82;28571;-82
2021/04/17 23:27:40;;;;;;;59.13;28.07;;;;;;;13.19;81.77;99356.88;4308216;82;28667;-84
2021/04/17 23:33:42;;;;;;;55.52;26.17;;;;;;;13.51;77.55;99351.02;4332344;81;28573;-84
2021/04/17 23:39:44;;;;;;;51.70;24.72;;;;;;;13.45;78.02;99351.97;4307938;81;28621;-84
2021/04/17 23:45:47;;;;;;;50.92;24.23;;;;;;;13.29;80.65;99335.98;4309912;81;28595;-83
2021/04/17 23:51:50;;;;;;;57.23;27.00;;;;;;;13.39;79.80;99334.83;4321479;81;28655;-82
2021/04/17 23:57:52;;;;;;;56.20;27.00;;;;;;;13.22;81.93;99334.27;4303764;81;28642;-80
